Terminal Aerodrome Forecast
Issued by NWS

Home | Current Version | Previous Version | Text Only | Print | Product List | Glossary On
Versions: 1 2 3 4 5 6 7 8 9 10 11 12
000
FTUS44 KBMX 262340
TAFEET
TAF
KEET 262340Z 2700/2724 13004KT P6SM SCT100 SCT250
     FM271500 11006KT P6SM OVC060 PROB30 2715/2718 36010KT 4SM SHRA
      OVC040
     FM271800 09007KT 5SM SHRA BR BKN035 OVC050=

USA.gov is the U.S. government's official web portal to all federal, state and local government web resources and services.